Front Circassia — V7JX6 — position and weather

sailwx.info

Track history (hours):
 
Tides and Currents Weather Stations Pressure Air Temp Water Temp Dewpoint Dewpoint Depression Visibility Wind Speed Wind Dir Waves Ship Positions

Front Circassia

Last reported at 2016-Sep-07 19:33 UTC. Time now 2016-Sep-27 03:41 UTC.
Position N 01°56' E 102°17'.
Warning: this ship's position is 19 days out of date.

Length 333 m; draft 11 m.

Type: Ship (hazmat cat A). MMSI: 538002584.

Date/timePositionNaut miles runAvg speedWind from/ knotsBaromVisibWave heightAir tempDewpointWater temp
2016-Sep-07 19:33N 01°56' E 102°17'1110.4
2016-Sep-07 18:32N 01°51' E 102°27'10 9.8
2016-Sep-07 17:32N 01°47' E 102°35'10 9.2
2016-Sep-07 16:24N 01°42' E 102°45'6410.9
2016-Sep-07 10:33N 01°11' E 103°40'8 7.7
2016-Sep-07 09:32N 01°10' E 103°48'9 8.9
2016-Sep-07 08:33N 01°14' E 103°56'2 1.9
2016-Sep-07 07:24N 01°16' E 103°56'0 0.0
2016-Sep-07 06:30N 01°16' E 103°56'0 0.0
2016-Sep-07 04:24N 01°16' E 103°56'0 0.0
2016-Sep-07 03:30N 01°16' E 103°56'0 0.1
2016-Sep-07 02:30N 01°16' E 103°56'0 0.1
2016-Sep-07 01:12N 01°16' E 103°56'0 0.1
2016-Sep-07 00:33N 01°16' E 103°56'0 0.4
2016-Sep-06 23:33N 01°16' E 103°56'0 0.4
2016-Sep-06 22:33N 01°16' E 103°56'0 0.3
2016-Sep-06 21:33N 01°16' E 103°56'0 0.0
2016-Sep-06 20:21N 01°16' E 103°56'0 0.0
2016-Sep-06 19:33N 01°16' E 103°56'0 0.1
2016-Sep-06 18:33N 01°16' E 103°56'0 0.1
2016-Sep-06 17:21N 01°16' E 103°56'0 0.1
2016-Sep-06 16:30N 01°16' E 103°56'0 0.0
2016-Sep-06 15:27N 01°16' E 103°56'0 0.0
2016-Sep-06 13:27N 01°16' E 103°56'0 0.1
2016-Sep-06 12:27N 01°16' E 103°56'0 0.0
2016-Sep-06 11:33N 01°16' E 103°56'0 0.1
2016-Sep-06 10:33N 01°16' E 103°56'0 0.0
2016-Sep-06 09:27N 01°16' E 103°56'0 0.1
2016-Sep-06 08:15N 01°16' E 103°56'0 0.1
2016-Sep-06 07:33N 01°16' E 103°56'0 0.0
2016-Sep-06 06:27N 01°16' E 103°56'0 0.0
2016-Sep-06 04:33N 01°16' E 103°56'0 0.1
2016-Sep-06 03:33N 01°16' E 103°56'0 0.1
2016-Sep-06 02:30N 01°16' E 103°56'1 0.9
2016-Sep-06 01:33N 01°16' E 103°57'4 3.9
2016-Sep-06 00:32N 01°16' E 104°01'5 4.6
2016-Sep-05 23:33N 01°16' E 104°06'6 5.1
2016-Sep-05 22:24N 01°17' E 104°11'  
Track history (hours):
 
Tides and Currents Weather Stations Pressure Air Temp Water Temp Dewpoint Dewpoint Depression Visibility Wind Speed Wind Dir Waves Ship Positions

Front Circassia

Last reported at 2016-Sep-07 19:33 UTC. Time now 2016-Sep-27 03:41 UTC.
Position N 01°56' E 102°17'.
Warning: this ship's position is 19 days out of date.

Length 333 m; draft 11 m.

Type: Ship (hazmat cat A). MMSI: 538002584.

Date/timePositionNaut miles runAvg speedWind from/ knotsBaromVisibWave heightAir tempDewpointWater temp
2016-Sep-07 19:33N 01°56' E 102°17'1110.4
2016-Sep-07 18:32N 01°51' E 102°27'10 9.8
2016-Sep-07 17:32N 01°47' E 102°35'10 9.2
2016-Sep-07 16:24N 01°42' E 102°45'6410.9
2016-Sep-07 10:33N 01°11' E 103°40'8 7.7
2016-Sep-07 09:32N 01°10' E 103°48'9 8.9
2016-Sep-07 08:33N 01°14' E 103°56'2 1.9
2016-Sep-07 07:24N 01°16' E 103°56'0 0.0
2016-Sep-07 06:30N 01°16' E 103°56'0 0.0
2016-Sep-07 04:24N 01°16' E 103°56'0 0.0
2016-Sep-07 03:30N 01°16' E 103°56'0 0.1
2016-Sep-07 02:30N 01°16' E 103°56'0 0.1
2016-Sep-07 01:12N 01°16' E 103°56'0 0.1
2016-Sep-07 00:33N 01°16' E 103°56'0 0.4
2016-Sep-06 23:33N 01°16' E 103°56'0 0.4
2016-Sep-06 22:33N 01°16' E 103°56'0 0.3
2016-Sep-06 21:33N 01°16' E 103°56'0 0.0
2016-Sep-06 20:21N 01°16' E 103°56'0 0.0
2016-Sep-06 19:33N 01°16' E 103°56'0 0.1
2016-Sep-06 18:33N 01°16' E 103°56'0 0.1
2016-Sep-06 17:21N 01°16' E 103°56'0 0.1
2016-Sep-06 16:30N 01°16' E 103°56'0 0.0
2016-Sep-06 15:27N 01°16' E 103°56'0 0.0
2016-Sep-06 13:27N 01°16' E 103°56'0 0.1
2016-Sep-06 12:27N 01°16' E 103°56'0 0.0
2016-Sep-06 11:33N 01°16' E 103°56'0 0.1
2016-Sep-06 10:33N 01°16' E 103°56'0 0.0
2016-Sep-06 09:27N 01°16' E 103°56'0 0.1
2016-Sep-06 08:15N 01°16' E 103°56'0 0.1
2016-Sep-06 07:33N 01°16' E 103°56'0 0.0
2016-Sep-06 06:27N 01°16' E 103°56'0 0.0
2016-Sep-06 04:33N 01°16' E 103°56'0 0.1
2016-Sep-06 03:33N 01°16' E 103°56'0 0.1
2016-Sep-06 02:30N 01°16' E 103°56'1 0.9
2016-Sep-06 01:33N 01°16' E 103°57'4 3.9
2016-Sep-06 00:32N 01°16' E 104°01'5 4.6
2016-Sep-05 23:33N 01°16' E 104°06'6 5.1
2016-Sep-05 22:24N 01°17' E 104°11'  

Dump ship's entire track history